Time;durP1;ratioP1;P1;durP2;ratioP2;P2;SDS_P1;SDS_P2;PMS_P1;PMS_P2;Temp;Humidity;BMP_temperature;BMP_pressure;BME280_temperature;BME280_humidity;BME280_pressure;Samples;Min_cycle;Max_cycle;Signal;HPM_P1;HPM_P2
2023/11/02 00:02:26;;;;;;;9.63;9.03;;;8.50;99.90;;;;;;4870404;29;20194;-79
2023/11/02 00:04:54;;;;;;;9.67;9.10;;;8.50;99.90;;;;;;4881425;29;20912;-79
2023/11/02 00:07:21;;;;;;;9.47;8.97;;;8.50;99.90;;;;;;4876196;29;20741;-80
2023/11/02 00:09:52;;;;;;;9.30;8.80;;;8.50;99.90;;;;;;4879685;29;20217;-79
2023/11/02 00:12:24;;;;;;;9.60;9.10;;;8.40;99.90;;;;;;4871277;29;20222;-79
2023/11/02 00:14:53;;;;;;;9.70;9.20;;;8.40;99.90;;;;;;4868621;29;20209;-79
2023/11/02 00:17:47;;;;;;;9.47;8.93;;;8.30;99.90;;;;;;4874616;29;20256;-79
2023/11/02 00:20:30;;;;;;;9.20;8.70;;;8.30;99.90;;;;;;4878100;29;20202;-79
2023/11/02 00:22:57;;;;;;;9.60;9.00;;;8.30;99.90;;;;;;4877485;29;20315;-79
2023/11/02 00:25:44;;;;;;;9.50;9.00;;;8.30;99.90;;;;;;4874871;29;20216;-80
2023/11/02 00:28:11;;;;;;;9.57;9.07;;;8.30;99.90;;;;;;4878995;29;20209;-80
2023/11/02 00:30:44;;;;;;;9.80;9.20;;;8.40;99.90;;;;;;4879820;29;20201;-80
2023/11/02 00:33:13;;;;;;;9.70;9.10;;;8.40;99.90;;;;;;4882928;29;20228;-79
2023/11/02 00:35:43;;;;;;;9.93;9.23;;;8.50;99.90;;;;;;4881105;29;20226;-80
2023/11/02 00:38:10;;;;;;;10.70;9.90;;;8.50;99.90;;;;;;4883530;29;20202;-80
2023/11/02 00:40:37;;;;;;;10.00;9.40;;;8.60;99.90;;;;;;4869206;29;20205;-79
2023/11/02 00:43:05;;;;;;;10.20;9.60;;;8.60;99.90;;;;;;4879232;29;20205;-79
2023/11/02 00:45:39;;;;;;;10.17;9.57;;;8.70;99.90;;;;;;4876895;29;20205;-80
2023/11/02 00:48:14;;;;;;;9.70;9.13;;;8.70;99.90;;;;;;4882433;29;20200;-80
2023/11/02 00:51:11;;;;;;;9.57;8.97;;;8.80;99.90;;;;;;4879627;29;20220;-80
2023/11/02 00:53:43;;;;;;;9.60;9.00;;;8.80;99.90;;;;;;4882628;29;20245;-80
2023/11/02 00:56:10;;;;;;;9.60;9.00;;;8.90;99.90;;;;;;4870783;29;20240;-79
2023/11/02 00:58:44;;;;;;;9.90;9.20;;;8.90;99.90;;;;;;4881129;29;20355;-79
2023/11/02 01:01:13;;;;;;;9.67;9.07;;;8.90;99.90;;;;;;4877342;29;20222;-80
2023/11/02 01:03:46;;;;;;;9.60;9.00;;;9.00;99.90;;;;;;4882215;29;20204;-79
2023/11/02 01:06:17;;;;;;;10.03;9.40;;;9.00;99.90;;;;;;4873521;29;20225;-79
2023/11/02 01:08:44;;;;;;;10.60;9.77;;;9.00;99.90;;;;;;4878710;29;20205;-80
2023/11/02 01:11:11;;;;;;;10.23;9.53;;;9.00;99.90;;;;;;4874865;29;20675;-80
2023/11/02 01:13:38;;;;;;;10.13;9.53;;;9.00;99.90;;;;;;4877599;29;20227;-79
2023/11/02 01:16:09;;;;;;;10.40;9.60;;;9.00;99.90;;;;;;4874473;29;20228;-80
2023/11/02 01:18:40;;;;;;;10.27;9.57;;;9.00;99.90;;;;;;4878626;29;20711;-80
2023/11/02 01:21:09;;;;;;;9.90;9.30;;;9.00;99.90;;;;;;4875527;29;20205;-80
2023/11/02 01:23:36;;;;;;;10.83;10.13;;;8.90;99.90;;;;;;4881754;29;20205;-80
2023/11/02 01:26:04;;;;;;;11.17;10.40;;;8.90;99.90;;;;;;4870327;29;20217;-80
2023/11/02 01:28:55;;;;;;;10.60;9.93;;;8.90;99.90;;;;;;4880732;29;20237;-80
2023/11/02 01:31:23;;;;;;;10.93;10.20;;;8.90;99.90;;;;;;4857411;29;20205;-80
2023/11/02 01:34:00;;;;;;;11.43;10.63;;;8.80;99.90;;;;;;4878192;29;20228;-80
2023/11/02 01:36:33;;;;;;;11.07;10.37;;;8.80;99.90;;;;;;4867183;29;20224;-80
2023/11/02 01:39:02;;;;;;;11.40;10.70;;;8.80;99.90;;;;;;4865762;29;20723;-80
2023/11/02 01:41:42;;;;;;;11.67;10.77;;;8.80;99.90;;;;;;4881152;29;20201;-79
2023/11/02 01:44:19;;;;;;;11.23;10.53;;;8.80;99.90;;;;;;4870660;29;20186;-80
2023/11/02 01:46:55;;;;;;;11.40;10.50;;;8.80;99.90;;;;;;4866661;29;20249;-79
2023/11/02 01:49:37;;;;;;;11.03;10.33;;;8.80;99.90;;;;;;4873321;29;20205;-80
2023/11/02 01:52:15;;;;;;;11.30;10.50;;;8.80;99.90;;;;;;4881828;29;20572;-80
2023/11/02 01:54:47;;;;;;;11.17;10.47;;;8.80;99.90;;;;;;4872528;29;20206;-80
2023/11/02 01:57:25;;;;;;;11.13;10.33;;;8.80;99.90;;;;;;4866386;29;20433;-80
2023/11/02 01:59:58;;;;;;;10.47;9.77;;;8.70;99.90;;;;;;4879031;29;20208;-80
2023/11/02 02:02:30;;;;;;;10.60;9.90;;;8.80;99.90;;;;;;4873049;29;20210;-80
2023/11/02 02:05:03;;;;;;;10.57;9.87;;;8.80;99.90;;;;;;4881539;29;20213;-80
2023/11/02 02:07:46;;;;;;;10.80;10.10;;;8.90;99.90;;;;;;4874390;29;20246;-80
2023/11/02 02:10:18;;;;;;;10.37;9.70;;;8.90;99.90;;;;;;4866920;29;20577;-80
2023/11/02 02:13:01;;;;;;;10.73;10.03;;;8.90;99.90;;;;;;4864041;29;20222;-80
2023/11/02 02:15:36;;;;;;;10.30;9.60;;;9.00;99.90;;;;;;4871172;29;20209;-80
2023/11/02 02:18:11;;;;;;;10.37;9.73;;;9.00;99.90;;;;;;4866835;29;20292;-79
2023/11/02 02:20:41;;;;;;;10.77;9.90;;;9.10;99.90;;;;;;4881552;29;20224;-79
2023/11/02 02:23:16;;;;;;;10.30;9.67;;;9.10;99.90;;;;;;4877346;29;20701;-80
2023/11/02 02:25:50;;;;;;;10.10;9.40;;;9.20;99.90;;;;;;4874903;29;20231;-79
2023/11/02 02:28:55;;;;;;;10.30;9.70;;;9.20;99.90;;;;;;4873961;29;20206;-79
2023/11/02 02:31:40;;;;;;;10.20;9.60;;;9.30;99.90;;;;;;4878057;29;20245;-79
2023/11/02 02:34:53;;;;;;;10.90;10.20;;;9.30;99.90;;;;;;4896646;29;20222;-79
2023/11/02 02:37:27;;;;;;;10.83;10.13;;;9.30;99.90;;;;;;4875156;29;20221;-80
2023/11/02 02:40:00;;;;;;;11.03;10.20;;;9.30;99.90;;;;;;4871799;29;20744;-80
2023/11/02 02:42:32;;;;;;;10.80;10.20;;;9.30;99.90;;;;;;4870772;29;20292;-80
2023/11/02 02:45:06;;;;;;;10.90;10.20;;;9.30;99.90;;;;;;4879889;29;20583;-79
2023/11/02 02:47:34;;;;;;;9.20;8.40;;;9.30;99.90;;;;;;4871481;29;20257;-79
2023/11/02 02:50:02;;;;;;;9.07;8.37;;;9.30;99.90;;;;;;4872724;29;20210;-79
2023/11/02 02:52:30;;;;;;;8.30;7.70;;;9.30;99.90;;;;;;4869974;29;20192;-80
2023/11/02 02:55:00;;;;;;;9.07;8.47;;;9.30;99.90;;;;;;4865264;29;20213;-80
2023/11/02 02:57:29;;;;;;;9.57;8.97;;;9.30;99.90;;;;;;4870076;29;20622;-80
2023/11/02 03:00:00;;;;;;;9.57;8.87;;;9.30;99.90;;;;;;4873973;29;20257;-80
2023/11/02 03:02:31;;;;;;;9.40;8.80;;;9.40;99.90;;;;;;4871791;29;20241;-79
2023/11/02 03:04:59;;;;;;;9.43;8.83;;;9.40;99.90;;;;;;4876406;29;20220;-80
2023/11/02 03:07:32;;;;;;;10.20;9.60;;;9.40;99.90;;;;;;4872322;29;20225;-79
2023/11/02 03:10:01;;;;;;;9.83;9.20;;;9.50;99.90;;;;;;4872080;29;20228;-79
2023/11/02 03:12:31;;;;;;;9.53;8.93;;;9.50;99.90;;;;;;4877037;29;20212;-79
2023/11/02 03:15:01;;;;;;;10.07;9.40;;;9.60;99.90;;;;;;4875569;29;20320;-79
2023/11/02 03:17:41;;;;;;;10.27;9.57;;;9.70;99.90;;;;;;4880588;29;20233;-80
2023/11/02 03:20:10;;;;;;;9.33;8.73;;;9.80;99.90;;;;;;4884179;29;20213;-80
2023/11/02 03:22:42;;;;;;;9.47;8.87;;;9.80;99.90;;;;;;4880563;29;20197;-80
2023/11/02 03:25:14;;;;;;;9.70;9.10;;;9.80;99.90;;;;;;4878089;29;20213;-80
2023/11/02 03:27:53;;;;;;;9.90;9.20;;;9.90;99.90;;;;;;4872816;29;20558;-79
2023/11/02 03:30:29;;;;;;;10.30;9.40;;;9.90;99.90;;;;;;4885341;29;20212;-79
2023/11/02 03:33:05;;;;;;;9.43;8.80;;;9.90;99.90;;;;;;4874059;29;20245;-80
2023/11/02 03:35:38;;;;;;;9.20;8.60;;;9.90;99.90;;;;;;4881115;29;20247;-80
2023/11/02 03:38:19;;;;;;;9.10;8.40;;;10.00;99.90;;;;;;4878371;29;20209;-80
2023/11/02 03:40:59;;;;;;;9.40;8.80;;;10.00;99.90;;;;;;4869542;29;20216;-79
2023/11/02 03:43:33;;;;;;;9.60;9.00;;;10.00;99.90;;;;;;4877510;29;20203;-79
2023/11/02 03:46:19;;;;;;;9.20;8.70;;;10.00;99.90;;;;;;4877270;29;20225;-79
2023/11/02 03:48:47;;;;;;;9.40;8.90;;;10.00;99.90;;;;;;4878297;29;20563;-79
2023/11/02 03:51:37;;;;;;;8.80;8.30;;;10.00;99.90;;;;;;4869299;29;20214;-81
2023/11/02 03:54:18;;;;;;;8.60;8.03;;;10.10;99.90;;;;;;4861967;29;20321;-81
2023/11/02 03:56:57;;;;;;;7.40;7.00;;;10.10;99.90;;;;;;4873344;29;20237;-83
2023/11/02 03:59:32;;;;;;;8.67;8.17;;;10.10;99.90;;;;;;4863474;29;20206;-81
2023/11/02 04:02:01;;;;;;;8.93;8.43;;;10.10;99.90;;;;;;4863440;29;20210;-80
2023/11/02 04:04:37;;;;;;;9.10;8.50;;;10.10;99.90;;;;;;4877359;29;20225;-82
2023/11/02 04:07:14;;;;;;;9.40;8.90;;;10.10;99.90;;;;;;4875832;29;20280;-81
2023/11/02 04:09:57;;;;;;;9.53;8.93;;;10.20;99.90;;;;;;4865069;29;20270;-79
2023/11/02 04:12:32;;;;;;;9.63;9.03;;;10.10;99.90;;;;;;4854690;29;20205;-81
2023/11/02 04:15:11;;;;;;;10.23;9.63;;;10.20;99.90;;;;;;4877974;29;20721;-81
2023/11/02 04:17:38;;;;;;;9.90;9.30;;;10.10;99.90;;;;;;4866263;29;20674;-81
2023/11/02 04:20:06;;;;;;;9.93;9.30;;;10.10;99.90;;;;;;4863337;29;20207;-82
2023/11/02 04:22:33;;;;;;;10.43;9.83;;;10.10;99.90;;;;;;4864061;29;20605;-80
2023/11/02 04:25:04;;;;;;;9.90;9.30;;;10.10;99.90;;;;;;4862769;29;20278;-81
2023/11/02 04:27:41;;;;;;;2.80;2.60;;;10.10;99.90;;;;;;4867092;29;20218;-84
2023/11/02 04:30:19;;;;;;;7.90;7.40;;;10.10;99.90;;;;;;4860289;29;20296;-78
2023/11/02 04:32:52;;;;;;;4.97;3.80;;;10.10;99.90;;;;;;4861616;29;20222;-81
2023/11/02 04:35:18;;;;;;;9.67;9.07;;;10.20;99.90;;;;;;4878985;29;20813;-78
2023/11/02 04:38:01;;;;;;;9.80;9.20;;;10.20;99.90;;;;;;4885383;29;20629;-79
2023/11/02 04:40:29;;;;;;;9.60;9.00;;;10.20;99.90;;;;;;4877304;29;20707;-78
2023/11/02 04:42:56;;;;;;;9.57;9.00;;;10.20;99.90;;;;;;4886237;29;20210;-78
2023/11/02 04:45:23;;;;;;;8.70;8.10;;;10.30;99.90;;;;;;4891447;29;20191;-79
2023/11/02 04:47:50;;;;;;;8.47;7.90;;;10.40;99.90;;;;;;4886436;29;20228;-79
2023/11/02 04:50:19;;;;;;;8.23;7.73;;;10.40;99.90;;;;;;4885624;29;20238;-79
2023/11/02 04:52:46;;;;;;;8.30;7.80;;;10.40;99.90;;;;;;4876580;29;20768;-79
2023/11/02 04:55:12;;;;;;;8.47;7.93;;;10.50;99.90;;;;;;4867372;29;20945;-78
2023/11/02 04:57:41;;;;;;;9.13;8.63;;;10.50;99.90;;;;;;4878783;29;20232;-79
2023/11/02 05:00:08;;;;;;;9.20;8.70;;;10.60;99.90;;;;;;4882076;29;20237;-78
2023/11/02 05:02:35;;;;;;;9.03;8.53;;;10.60;99.90;;;;;;4878334;29;20228;-79
2023/11/02 05:05:02;;;;;;;8.23;7.63;;;10.60;99.90;;;;;;4889763;29;20553;-79
2023/11/02 05:07:29;;;;;;;8.77;8.17;;;10.60;99.90;;;;;;4879810;29;20723;-79
2023/11/02 05:09:56;;;;;;;9.37;8.67;;;10.60;99.90;;;;;;4885116;29;20207;-78
2023/11/02 05:12:23;;;;;;;9.13;8.63;;;10.60;99.90;;;;;;4887592;29;20199;-79
2023/11/02 05:14:51;;;;;;;9.40;8.90;;;10.60;99.90;;;;;;4883944;29;20230;-78
2023/11/02 05:17:18;;;;;;;9.27;8.50;;;10.60;99.90;;;;;;4880729;29;20229;-78
2023/11/02 05:19:45;;;;;;;8.70;8.20;;;10.60;99.90;;;;;;4883991;29;20644;-78
2023/11/02 05:22:12;;;;;;;9.30;8.80;;;10.60;99.90;;;;;;4886247;29;20217;-79
2023/11/02 05:24:39;;;;;;;8.80;8.30;;;10.70;99.90;;;;;;4885339;29;20199;-79
2023/11/02 05:27:05;;;;;;;11.17;9.00;;;10.70;99.90;;;;;;4883119;29;20715;-78
2023/11/02 05:29:32;;;;;;;9.13;8.63;;;10.80;99.90;;;;;;4886850;29;20266;-79
2023/11/02 05:32:00;;;;;;;9.40;8.90;;;10.80;99.90;;;;;;4887574;29;20205;-78
2023/11/02 05:34:27;;;;;;;9.20;8.70;;;10.80;99.90;;;;;;4882364;29;20260;-80
2023/11/02 05:36:54;;;;;;;9.20;8.70;;;10.90;99.90;;;;;;4883338;29;20719;-79
2023/11/02 05:39:21;;;;;;;9.43;8.83;;;11.00;99.90;;;;;;4885931;29;20221;-79
2023/11/02 05:41:48;;;;;;;9.50;9.00;;;11.00;99.90;;;;;;4885657;29;20227;-79
2023/11/02 05:44:14;;;;;;;9.77;9.17;;;11.10;99.90;;;;;;4885360;29;20215;-78
2023/11/02 05:46:41;;;;;;;9.23;8.70;;;11.20;99.90;;;;;;4885757;29;20235;-78
2023/11/02 05:49:10;;;;;;;8.77;8.27;;;11.20;99.90;;;;;;4885310;29;20213;-79
2023/11/02 05:51:36;;;;;;;8.93;8.43;;;11.30;99.90;;;;;;4881501;29;20202;-79
2023/11/02 05:54:03;;;;;;;9.30;8.80;;;11.20;99.90;;;;;;4884629;29;20231;-78
2023/11/02 05:56:30;;;;;;;9.20;8.70;;;11.20;99.90;;;;;;4883525;29;20603;-79
2023/11/02 05:58:58;;;;;;;9.53;9.03;;;11.20;99.90;;;;;;4884210;29;20205;-79
2023/11/02 06:01:25;;;;;;;4.73;4.43;;;11.10;99.90;;;;;;4879627;29;20287;-78
2023/11/02 06:03:52;;;;;;;4.53;4.33;;;11.10;99.90;;;;;;4883509;29;20203;-79
2023/11/02 06:06:20;;;;;;;4.33;4.13;;;11.10;99.90;;;;;;4883913;29;20776;-78
2023/11/02 06:08:47;;;;;;;5.07;4.77;;;11.10;99.90;;;;;;4889566;29;20207;-79
2023/11/02 06:11:14;;;;;;;4.80;4.50;;;11.10;99.90;;;;;;4879583;29;20213;-79
2023/11/02 06:13:40;;;;;;;4.90;4.60;;;11.10;99.90;;;;;;4875652;29;20635;-78
2023/11/02 06:16:08;;;;;;;2.60;2.40;;;11.10;99.90;;;;;;4869661;29;20236;-77
2023/11/02 06:18:35;;;;;;;2.60;2.40;;;11.10;99.90;;;;;;4870728;29;20208;-78
2023/11/02 06:21:07;;;;;;;2.90;2.70;;;11.00;99.90;;;;;;4861749;29;20553;-81
2023/11/02 06:23:39;;;;;;;2.60;2.40;;;10.90;99.90;;;;;;4876821;29;20208;-85
2023/11/02 06:26:06;;;;;;;2.60;2.50;;;10.90;99.90;;;;;;4874884;29;20742;-81
2023/11/02 06:28:34;;;;;;;4.20;3.90;;;10.70;99.90;;;;;;4862811;29;20207;-83
2023/11/02 06:31:00;;;;;;;2.63;2.43;;;10.70;99.90;;;;;;4863816;29;20207;-81
2023/11/02 06:33:35;;;;;;;3.70;3.50;;;10.60;99.90;;;;;;4868342;29;20211;-82
2023/11/02 06:36:35;;;;;;;2.77;2.50;;;10.60;99.90;;;;;;4862323;29;20295;-81
2023/11/02 06:39:10;;;;;;;2.70;2.53;;;10.60;99.90;;;;;;4863553;29;20204;-82
2023/11/02 06:41:37;;;;;;;2.53;2.40;;;10.50;99.90;;;;;;4863823;29;20199;-81
2023/11/02 06:44:04;;;;;;;2.70;2.50;;;10.50;99.90;;;;;;4863713;29;20216;-83
2023/11/02 06:46:31;;;;;;;2.77;2.57;;;10.50;99.90;;;;;;4873524;29;20211;-81
2023/11/02 06:48:58;;;;;;;5.97;5.60;;;10.40;99.90;;;;;;4881164;29;20265;-82
2023/11/02 06:51:25;;;;;;;7.90;7.50;;;10.30;99.90;;;;;;4869208;29;20507;-82
2023/11/02 06:53:58;;;;;;;3.57;3.37;;;10.30;99.90;;;;;;4862677;29;20221;-81
2023/11/02 06:56:26;;;;;;;2.90;2.70;;;10.20;99.90;;;;;;4864396;29;20239;-81
2023/11/02 06:58:53;;;;;;;3.30;3.10;;;10.20;99.90;;;;;;4867168;29;20206;-83
2023/11/02 07:01:21;;;;;;;3.27;3.07;;;10.20;99.90;;;;;;4866276;29;20214;-82
2023/11/02 07:03:48;;;;;;;3.10;2.90;;;10.10;99.90;;;;;;4880576;29;20294;-82
2023/11/02 07:06:15;;;;;;;5.30;4.80;;;10.10;99.90;;;;;;4876517;29;20237;-82
2023/11/02 07:08:42;;;;;;;2.90;2.70;;;10.10;99.90;;;;;;4865943;29;20205;-82
2023/11/02 07:11:09;;;;;;;8.03;7.50;;;10.10;99.90;;;;;;4863350;29;20266;-81
2023/11/02 07:13:40;;;;;;;6.00;5.60;;;10.10;99.90;;;;;;4865052;29;20200;-82
2023/11/02 07:16:08;;;;;;;5.20;4.90;;;10.00;99.90;;;;;;4866344;29;20283;-83
2023/11/02 07:18:35;;;;;;;3.10;2.90;;;10.10;99.90;;;;;;4869063;29;20206;-83
2023/11/02 07:21:04;;;;;;;6.93;6.53;;;10.10;99.90;;;;;;4867164;29;20657;-81
2023/11/02 07:23:40;;;;;;;10.17;9.47;;;10.00;99.90;;;;;;4874408;29;20277;-82
2023/11/02 07:26:09;;;;;;;8.37;7.70;;;10.00;99.90;;;;;;4871396;29;20226;-82
2023/11/02 07:28:36;;;;;;;3.40;3.10;;;10.00;99.90;;;;;;4874832;29;20703;-83
2023/11/02 07:31:08;;;;;;;5.57;5.13;;;10.00;99.90;;;;;;4867618;29;20235;-83
2023/11/02 07:33:40;;;;;;;3.10;2.90;;;10.10;99.90;;;;;;4870830;29;20217;-82
2023/11/02 07:36:14;;;;;;;5.70;5.33;;;10.10;99.90;;;;;;4869564;29;20230;-83
2023/11/02 07:38:43;;;;;;;4.93;4.63;;;10.10;99.90;;;;;;4875063;29;20289;-82
2023/11/02 07:41:11;;;;;;;4.13;3.90;;;10.00;99.90;;;;;;4866716;29;20314;-82
2023/11/02 07:43:38;;;;;;;5.70;5.20;;;10.00;99.90;;;;;;4867072;29;20195;-82
2023/11/02 07:46:07;;;;;;;6.37;5.93;;;10.00;99.90;;;;;;4866441;29;20228;-82
2023/11/02 07:48:34;;;;;;;7.53;6.93;;;10.00;99.90;;;;;;4867226;29;20196;-83
2023/11/02 07:51:06;;;;;;;3.90;3.60;;;10.00;99.90;;;;;;4866787;29;20204;-83
2023/11/02 07:53:33;;;;;;;7.10;6.70;;;10.00;99.90;;;;;;4866202;29;20255;-83
2023/11/02 07:56:00;;;;;;;6.70;6.20;;;10.00;99.90;;;;;;4867562;29;20227;-83
2023/11/02 07:58:27;;;;;;;5.10;4.80;;;10.00;99.90;;;;;;4875264;29;20203;-82
2023/11/02 08:00:57;;;;;;;3.23;3.03;;;10.00;99.90;;;;;;4873178;29;20236;-82
2023/11/02 08:03:26;;;;;;;4.00;3.60;;;10.10;99.90;;;;;;4874396;29;20629;-82
2023/11/02 08:05:55;;;;;;;6.67;6.27;;;10.10;99.90;;;;;;4877670;29;20228;-83
2023/11/02 08:08:23;;;;;;;4.73;4.43;;;10.20;99.90;;;;;;4865429;29;20212;-83
2023/11/02 08:10:50;;;;;;;4.47;4.07;;;10.20;99.90;;;;;;4866003;29;20204;-81
2023/11/02 08:13:17;;;;;;;4.07;3.50;;;10.20;99.90;;;;;;4866557;29;20702;-82
2023/11/02 08:15:46;;;;;;;3.97;3.70;;;10.20;99.90;;;;;;4859355;29;20724;-82
2023/11/02 08:18:13;;;;;;;3.03;2.80;;;10.20;99.90;;;;;;4866605;29;20198;-83
2023/11/02 08:20:54;;;;;;;4.23;3.10;;;10.20;99.90;;;;;;4866136;29;20204;-84
2023/11/02 08:23:21;;;;;;;3.00;2.80;;;10.20;99.90;;;;;;4865907;29;20271;-83
2023/11/02 08:25:49;;;;;;;3.33;3.07;;;10.20;99.90;;;;;;4864521;29;20270;-83
2023/11/02 08:28:16;;;;;;;3.67;3.17;;;10.20;99.90;;;;;;4864122;29;20237;-80
2023/11/02 08:30:44;;;;;;;4.40;4.00;;;10.20;99.90;;;;;;4863484;29;20210;-81
2023/11/02 08:33:10;;;;;;;8.30;7.80;;;10.20;99.90;;;;;;4862638;29;20213;-81
2023/11/02 08:35:37;;;;;;;9.87;9.27;;;10.20;99.90;;;;;;4862917;29;20227;-81
2023/11/02 08:38:06;;;;;;;10.17;9.57;;;10.30;99.90;;;;;;4862766;29;20211;-81
2023/11/02 08:40:49;;;;;;;10.00;9.40;;;10.30;99.90;;;;;;4862547;29;20211;-82
2023/11/02 08:43:18;;;;;;;12.53;11.73;;;10.30;99.90;;;;;;4863103;29;20215;-78
2023/11/02 08:45:51;;;;;;;2.80;2.60;;;10.30;99.90;;;;;;4862084;29;20705;-81
2023/11/02 08:48:17;;;;;;;3.20;3.00;;;10.40;99.90;;;;;;4864002;29;20211;-79
2023/11/02 08:50:59;;;;;;;3.10;2.90;;;10.40;99.90;;;;;;4864655;29;20194;-80
2023/11/02 08:53:33;;;;;;;3.10;2.90;;;10.50;99.90;;;;;;4861753;29;20209;-79
2023/11/02 08:56:00;;;;;;;3.13;2.93;;;10.50;99.90;;;;;;4861346;29;20235;-79
2023/11/02 08:58:27;;;;;;;3.10;2.80;;;10.60;99.90;;;;;;4863156;29;20295;-79
2023/11/02 09:00:54;;;;;;;7.83;7.33;;;10.60;99.90;;;;;;4864174;29;20226;-78
2023/11/02 09:03:21;;;;;;;6.90;6.23;;;10.70;99.90;;;;;;4871593;29;20203;-79
2023/11/02 09:05:48;;;;;;;5.83;5.40;;;10.80;99.90;;;;;;4863000;29;20216;-79
2023/11/02 09:08:15;;;;;;;3.23;3.00;;;11.00;99.90;;;;;;4861732;29;20246;-79
2023/11/02 09:10:43;;;;;;;10.73;10.10;;;11.10;99.90;;;;;;4862630;29;20240;-79
2023/11/02 09:13:10;;;;;;;10.80;10.20;;;11.20;99.90;;;;;;4862005;29;20208;-79
2023/11/02 09:15:36;;;;;;;11.30;10.70;;;11.40;99.90;;;;;;4862285;29;20232;-79
2023/11/02 09:18:03;;;;;;;11.03;10.43;;;11.40;99.90;;;;;;4863485;29;20598;-79
2023/11/02 09:20:30;;;;;;;10.17;9.57;;;11.40;99.90;;;;;;4863388;29;20201;-78
2023/11/02 09:22:58;;;;;;;9.67;9.07;;;11.50;99.90;;;;;;4862739;29;20299;-79
2023/11/02 09:25:24;;;;;;;4.83;4.43;;;11.50;99.90;;;;;;4863049;29;20257;-78
2023/11/02 09:27:53;;;;;;;6.77;6.37;;;11.50;99.90;;;;;;4861790;29;20662;-79
2023/11/02 09:30:19;;;;;;;5.37;4.97;;;11.50;99.90;;;;;;4863043;29;20228;-79
2023/11/02 09:32:46;;;;;;;5.10;4.80;;;11.60;99.90;;;;;;4863874;29;20209;-79
2023/11/02 09:35:13;;;;;;;5.90;5.60;;;11.60;99.90;;;;;;4877058;29;20716;-79
2023/11/02 09:37:40;;;;;;;7.30;6.80;;;11.70;99.90;;;;;;4878280;29;20215;-79
2023/11/02 09:40:08;;;;;;;8.33;7.73;;;11.60;99.90;;;;;;4876795;29;20286;-79
2023/11/02 09:42:35;;;;;;;6.90;6.30;;;11.60;99.90;;;;;;4874265;29;20209;-78
2023/11/02 09:45:04;;;;;;;3.87;3.57;;;11.60;99.90;;;;;;4877010;29;20273;-79
2023/11/02 09:47:32;;;;;;;4.10;3.63;;;11.60;99.90;;;;;;4875596;29;20223;-79
2023/11/02 09:49:59;;;;;;;4.03;3.30;;;11.50;99.90;;;;;;4878179;29;20254;-80
2023/11/02 09:52:27;;;;;;;3.27;3.03;;;11.50;99.90;;;;;;4876354;29;20271;-79
2023/11/02 09:54:54;;;;;;;6.07;3.20;;;11.50;99.90;;;;;;4868344;29;20227;-79
2023/11/02 09:57:21;;;;;;;3.10;2.90;;;11.60;99.90;;;;;;4875923;29;20280;-79
2023/11/02 09:59:48;;;;;;;2.90;2.70;;;11.60;99.90;;;;;;4876110;29;20216;-79
2023/11/02 10:02:18;;;;;;;3.30;2.70;;;11.60;99.90;;;;;;4872899;29;20413;-78
2023/11/02 10:05:12;;;;;;;2.70;2.57;;;11.70;99.90;;;;;;4870441;29;20682;-82
2023/11/02 10:07:48;;;;;;;4.90;4.50;;;11.80;99.90;;;;;;4860604;29;20603;-81
2023/11/02 10:10:16;;;;;;;4.60;4.30;;;11.90;99.90;;;;;;4868328;29;20288;-79
2023/11/02 10:12:42;;;;;;;5.30;5.00;;;11.90;99.90;;;;;;4861761;29;20690;-80
2023/11/02 10:15:11;;;;;;;5.20;4.90;;;11.90;99.90;;;;;;4866569;29;20250;-83
2023/11/02 10:17:40;;;;;;;4.00;3.80;;;11.90;99.90;;;;;;4871925;29;20549;-84
2023/11/02 10:20:11;;;;;;;5.03;4.73;;;11.90;99.90;;;;;;4860597;29;20216;-81
2023/11/02 10:22:40;;;;;;;4.20;4.00;;;11.90;99.90;;;;;;4862386;29;20203;-81
2023/11/02 10:25:07;;;;;;;9.90;9.30;;;11.90;99.90;;;;;;4865057;29;20206;-81
2023/11/02 10:27:35;;;;;;;9.80;9.30;;;11.90;99.90;;;;;;4860009;29;20242;-82
2023/11/02 10:30:05;;;;;;;10.40;9.80;;;11.80;99.90;;;;;;4859921;29;20277;-81
2023/11/02 10:37:58;;;;;;;10.60;10.07;;;11.80;99.90;;;;;;4810257;29;20243;-81
2023/11/02 10:44:28;;;;;;;4.60;4.40;;;11.90;99.90;;;;;;4791831;29;20244;-79
2023/11/02 10:51:06;;;;;;;4.63;4.43;;;11.80;99.90;;;;;;4838290;29;20322;-82
2023/11/02 10:54:51;;;;;;;5.00;4.73;;;11.70;99.90;;;;;;4838905;29;20742;-82
2023/11/02 10:57:24;;;;;;;9.50;9.00;;;11.70;99.90;;;;;;4752812;30;20258;-83
2023/11/02 10:59:54;;;;;;;7.80;7.40;;;11.70;99.90;;;;;;4815909;29;20225;-81
2023/11/02 11:02:21;;;;;;;11.10;10.50;;;11.60;99.90;;;;;;4858865;29;20230;-81
2023/11/02 11:08:04;;;;;;;8.03;7.63;;;11.60;99.90;;;;;;4712056;23;10112971;-80
2023/11/02 11:10:35;;;;;;;4.80;4.50;;;11.60;99.90;;;;;;4897164;29;20207;-79
2023/11/02 11:13:36;;;;;;;7.40;6.90;;;11.60;99.90;;;;;;4895506;29;20314;-79
2023/11/02 11:16:07;;;;;;;9.50;9.00;;;11.50;99.90;;;;;;4893147;29;20241;-79
2023/11/02 11:18:35;;;;;;;6.80;6.40;;;11.40;99.90;;;;;;4872431;29;20211;-79
2023/11/02 11:21:06;;;;;;;8.03;7.60;;;11.40;99.90;;;;;;4877671;29;20211;-78
2023/11/02 11:23:44;;;;;;;10.60;10.10;;;11.30;99.90;;;;;;4871041;29;20696;-79
2023/11/02 11:26:12;;;;;;;10.73;10.13;;;11.30;99.90;;;;;;4870771;29;20234;-81
2023/11/02 11:29:50;;;;;;;10.90;10.20;;;11.20;99.90;;;;;;4876546;29;20678;-78
2023/11/02 11:32:41;;;;;;;9.60;9.10;;;11.20;99.90;;;;;;4814696;29;20238;-79
2023/11/02 11:40:15;;;;;;;9.67;8.97;;;11.20;99.90;;;;;;4741698;30;20229;-79
2023/11/02 11:43:18;;;;;;;9.27;8.77;;;11.10;99.90;;;;;;4719982;30;20311;-79
2023/11/02 11:45:48;;;;;;;9.63;9.07;;;11.00;99.90;;;;;;4787856;29;20269;-79
2023/11/02 11:48:35;;;;;;;2.80;2.60;;;11.10;99.90;;;;;;4821106;29;20285;-79
2023/11/02 11:51:24;;;;;;;9.90;9.30;;;11.10;99.90;;;;;;4879463;29;20219;-79
2023/11/02 11:54:09;;;;;;;4.20;3.90;;;11.10;99.90;;;;;;4885773;29;20230;-79
2023/11/02 11:56:36;;;;;;;7.03;6.57;;;11.10;99.90;;;;;;4879366;29;20272;-79
2023/11/02 11:59:03;;;;;;;8.73;8.23;;;11.20;99.90;;;;;;4884478;29;20227;-78
2023/11/02 12:01:30;;;;;;;4.40;4.10;;;11.20;99.90;;;;;;4883867;29;20214;-79
2023/11/02 12:03:59;;;;;;;9.33;8.73;;;11.20;99.90;;;;;;4878453;29;20298;-78
2023/11/02 12:06:40;;;;;;;7.17;6.77;;;11.20;99.90;;;;;;4882548;29;20249;-79
2023/11/02 12:09:10;;;;;;;8.60;8.10;;;11.10;99.90;;;;;;4879685;29;20210;-79
2023/11/02 12:11:37;;;;;;;9.97;9.37;;;11.10;99.90;;;;;;4886381;29;20251;-78
2023/11/02 12:14:13;;;;;;;3.73;3.53;;;11.20;99.90;;;;;;4877376;29;20214;-79
2023/11/02 12:16:40;;;;;;;3.77;3.33;;;11.10;99.90;;;;;;4881515;29;20325;-79
2023/11/02 12:19:10;;;;;;;2.70;2.60;;;11.10;99.90;;;;;;4871495;29;20204;-79
2023/11/02 12:21:38;;;;;;;5.27;4.97;;;11.10;99.90;;;;;;4883605;29;20201;-79
2023/11/02 12:24:09;;;;;;;5.03;4.73;;;11.10;99.90;;;;;;4876618;29;20237;-80
2023/11/02 12:26:36;;;;;;;5.57;5.20;;;11.10;99.90;;;;;;4877558;29;20221;-78
2023/11/02 12:29:09;;;;;;;8.13;7.67;;;11.10;99.90;;;;;;4885603;29;20207;-78
2023/11/02 12:31:39;;;;;;;6.53;6.13;;;11.10;99.90;;;;;;4876019;29;20284;-79
2023/11/02 12:34:10;;;;;;;4.33;3.80;;;11.10;99.90;;;;;;4881562;29;20205;-78
2023/11/02 12:36:39;;;;;;;3.13;2.97;;;11.10;99.90;;;;;;4881855;29;20232;-78
2023/11/02 12:39:13;;;;;;;10.10;9.40;;;11.10;99.90;;;;;;4872084;29;20236;-79
2023/11/02 12:41:43;;;;;;;5.13;4.83;;;11.10;99.90;;;;;;4876802;29;20303;-80
2023/11/02 12:44:12;;;;;;;8.13;7.53;;;11.00;99.90;;;;;;4879973;29;20218;-79
2023/11/02 12:46:41;;;;;;;10.37;9.77;;;11.00;99.90;;;;;;4879695;29;20223;-80
2023/11/02 12:49:17;;;;;;;10.00;9.40;;;11.00;99.90;;;;;;4878895;29;20686;-79
2023/11/02 12:51:45;;;;;;;10.03;9.50;;;11.00;99.90;;;;;;4866895;29;20256;-78
2023/11/02 12:54:20;;;;;;;10.60;10.00;;;11.00;99.90;;;;;;4872406;29;20230;-81
2023/11/02 12:56:52;;;;;;;10.50;9.80;;;11.10;99.90;;;;;;4875067;29;20227;-83
2023/11/02 12:59:52;;;;;;;10.40;9.80;;;11.00;99.90;;;;;;4876826;29;20219;-83
2023/11/02 13:09:09;;;;;;;10.50;9.90;;;11.00;99.90;;;;;;4919076;23;20334;-80
2023/11/02 13:15:26;;;;;;;10.30;9.70;;;11.00;99.90;;;;;;4821696;29;20204;-80
2023/11/02 13:18:25;;;;;;;11.50;10.87;;;11.00;99.90;;;;;;4810339;29;20241;-81
2023/11/02 13:20:57;;;;;;;9.87;9.27;;;11.00;99.90;;;;;;4853556;29;20241;-81
2023/11/02 13:23:24;;;;;;;8.40;7.90;;;11.00;99.90;;;;;;4856314;29;20693;-80
2023/11/02 13:25:58;;;;;;;6.50;6.10;;;11.00;99.90;;;;;;4857678;29;20224;-81
2023/11/02 13:28:30;;;;;;;3.07;2.87;;;11.00;99.90;;;;;;4850530;29;20332;-81
2023/11/02 13:30:57;;;;;;;3.30;3.10;;;10.90;99.90;;;;;;4850061;29;20633;-80
2023/11/02 13:43:45;;;;;;;9.90;9.40;;;11.00;99.90;;;;;;4788111;29;20208;-81
2023/11/02 13:47:06;;;;;;;9.20;8.70;;;11.10;99.90;;;;;;4766765;29;20261;-81
2023/11/02 13:49:59;;;;;;;9.80;9.20;;;11.10;99.90;;;;;;4806288;29;20213;-81
2023/11/02 13:53:07;;;;;;;9.50;9.00;;;11.20;99.90;;;;;;4857993;29;20579;-81
2023/11/02 13:56:21;;;;;;;5.13;4.83;;;11.10;99.90;;;;;;4850685;29;20275;-81